Time;durP1;ratioP1;P1;durP2;ratioP2;P2;SDS_P1;SDS_P2;PMS_P1;PMS_P2;Temp;Humidity;BMP_temperature;BMP_pressure;BME280_temperature;BME280_humidity;BME280_pressure;Samples;Min_cycle;Max_cycle;Signal;HPM_P1;HPM_P2
2021/08/17 00:02:07;;;;;;;7.83;3.27;;;13.10;99.90;;;;;;5008632;28;20228;-49
2021/08/17 00:04:34;;;;;;;5.53;3.07;;;12.90;99.90;;;;;;5008814;28;20662;-49
2021/08/17 00:07:03;;;;;;;6.00;2.97;;;12.80;99.90;;;;;;5008894;28;20606;-49
2021/08/17 00:09:30;;;;;;;3.60;2.50;;;12.80;99.90;;;;;;5008697;28;20244;-50
2021/08/17 00:11:57;;;;;;;4.77;2.97;;;12.80;99.90;;;;;;5008454;28;20214;-49
2021/08/17 00:14:24;;;;;;;11.10;3.07;;;12.90;99.90;;;;;;5008365;28;20210;-48
2021/08/17 00:16:51;;;;;;;5.10;3.00;;;12.90;99.90;;;;;;5009176;28;20296;-48
2021/08/17 00:19:18;;;;;;;9.60;3.27;;;13.00;99.90;;;;;;5008411;28;20248;-49
2021/08/17 00:21:44;;;;;;;8.33;2.93;;;13.00;99.90;;;;;;5008846;28;20307;-49
2021/08/17 00:24:11;;;;;;;6.23;3.23;;;12.80;99.90;;;;;;5008448;28;20242;-49
2021/08/17 00:26:38;;;;;;;6.50;3.20;;;12.90;99.90;;;;;;5008627;28;20295;-49
2021/08/17 00:29:05;;;;;;;8.90;3.43;;;13.00;99.90;;;;;;5009232;28;20292;-49
2021/08/17 00:31:31;;;;;;;8.27;3.50;;;12.90;99.90;;;;;;5008711;28;20727;-49
2021/08/17 00:33:58;;;;;;;4.47;2.80;;;13.00;99.90;;;;;;5008302;28;20236;-49
2021/08/17 00:36:29;;;;;;;9.60;3.43;;;13.00;99.90;;;;;;5008325;28;20237;-49
2021/08/17 00:38:56;;;;;;;9.13;3.27;;;13.00;99.90;;;;;;5008036;28;20247;-50
2021/08/17 00:41:23;;;;;;;7.10;3.40;;;13.00;99.90;;;;;;5008224;28;20384;-49
2021/08/17 00:43:50;;;;;;;10.47;3.57;;;12.90;99.90;;;;;;5007992;28;20240;-49
2021/08/17 00:46:17;;;;;;;5.67;3.47;;;13.00;99.90;;;;;;5008479;28;20311;-50
2021/08/17 00:48:43;;;;;;;8.47;3.37;;;12.90;99.90;;;;;;5007799;28;20264;-48
2021/08/17 00:51:11;;;;;;;8.47;3.47;;;12.90;99.90;;;;;;5008300;28;20704;-50
2021/08/17 00:53:37;;;;;;;6.40;3.80;;;12.90;99.90;;;;;;5008322;28;20232;-49
2021/08/17 00:56:05;;;;;;;10.30;3.17;;;12.90;99.90;;;;;;5008157;28;20312;-50
2021/08/17 00:58:32;;;;;;;6.87;3.50;;;13.00;99.90;;;;;;5008121;28;20720;-49
2021/08/17 01:00:59;;;;;;;5.67;3.70;;;12.90;99.90;;;;;;5007773;28;20236;-49
2021/08/17 01:03:27;;;;;;;8.97;4.43;;;12.90;99.90;;;;;;5008170;28;20610;-50
2021/08/17 01:05:57;;;;;;;9.27;3.73;;;12.90;99.90;;;;;;5007825;28;20300;-49
2021/08/17 01:08:26;;;;;;;12.87;4.57;;;13.00;99.90;;;;;;5008417;28;20303;-49
2021/08/17 01:10:53;;;;;;;8.90;3.77;;;13.10;99.90;;;;;;5007329;28;20204;-49
2021/08/17 01:13:23;;;;;;;8.77;4.13;;;13.00;99.90;;;;;;5008263;28;20296;-49
2021/08/17 01:15:52;;;;;;;9.90;4.57;;;13.10;99.90;;;;;;5008058;28;20208;-49
2021/08/17 01:18:19;;;;;;;8.73;4.17;;;13.10;99.90;;;;;;5008095;28;20828;-49
2021/08/17 01:20:51;;;;;;;10.93;4.50;;;13.10;99.90;;;;;;5007763;28;20292;-50
2021/08/17 01:23:18;;;;;;;13.23;4.47;;;13.10;99.90;;;;;;5008053;28;20313;-49
2021/08/17 01:25:46;;;;;;;10.10;4.90;;;13.20;99.90;;;;;;5008118;28;20293;-49
2021/08/17 01:28:13;;;;;;;10.73;5.77;;;13.00;99.90;;;;;;5007793;28;20299;-49
2021/08/17 01:30:40;;;;;;;11.07;5.30;;;13.10;99.90;;;;;;5007921;28;20263;-48
2021/08/17 01:33:07;;;;;;;12.23;6.00;;;13.20;99.90;;;;;;5007696;28;20275;-49
2021/08/17 01:35:34;;;;;;;11.10;6.13;;;13.30;99.90;;;;;;5007561;28;20596;-50
2021/08/17 01:38:05;;;;;;;17.13;6.27;;;13.20;99.90;;;;;;5008325;28;20703;-49
2021/08/17 01:40:32;;;;;;;12.43;6.50;;;13.20;99.90;;;;;;5007270;28;20248;-49
2021/08/17 01:42:59;;;;;;;16.10;7.03;;;13.20;99.90;;;;;;5007987;28;20296;-49
2021/08/17 01:45:26;;;;;;;12.17;6.30;;;13.20;99.90;;;;;;5007178;28;20248;-48
2021/08/17 01:47:53;;;;;;;17.80;6.73;;;13.10;99.90;;;;;;5006588;28;20241;-49
2021/08/17 01:50:22;;;;;;;20.20;7.03;;;13.20;99.90;;;;;;5006709;28;20205;-49
2021/08/17 01:52:49;;;;;;;15.07;7.07;;;13.20;99.90;;;;;;5007789;28;20316;-49
2021/08/17 01:55:16;;;;;;;16.10;7.20;;;13.30;99.90;;;;;;5007527;28;20300;-49
2021/08/17 01:57:43;;;;;;;13.33;6.80;;;13.30;99.90;;;;;;5007656;28;20260;-49
2021/08/17 02:00:12;;;;;;;15.27;7.63;;;13.30;99.90;;;;;;5007701;28;20244;-48
2021/08/17 02:02:39;;;;;;;15.30;7.63;;;13.40;99.90;;;;;;5008024;28;20705;-49
2021/08/17 02:05:08;;;;;;;15.53;7.13;;;13.40;99.90;;;;;;5007038;28;20216;-49
2021/08/17 02:07:34;;;;;;;13.73;6.70;;;13.50;99.90;;;;;;5007473;28;20291;-49
2021/08/17 02:10:03;;;;;;;14.50;7.33;;;13.50;99.90;;;;;;5007588;28;20613;-49
2021/08/17 02:12:30;;;;;;;15.67;8.07;;;13.40;99.90;;;;;;5007530;28;20683;-49
2021/08/17 02:14:57;;;;;;;16.07;6.77;;;13.40;99.90;;;;;;5006867;28;20383;-48
2021/08/17 02:17:23;;;;;;;13.10;6.97;;;13.40;99.90;;;;;;5007714;28;20298;-50
2021/08/17 02:19:50;;;;;;;19.90;7.30;;;13.40;99.90;;;;;;5007164;28;21314;-49
2021/08/17 02:22:17;;;;;;;19.10;7.80;;;13.50;99.90;;;;;;5007624;28;20300;-49
2021/08/17 02:24:44;;;;;;;16.30;7.87;;;13.50;99.90;;;;;;5010813;28;20321;-49
2021/08/17 02:27:10;;;;;;;15.60;7.17;;;13.60;99.90;;;;;;5010797;28;20229;-49
2021/08/17 02:29:37;;;;;;;16.43;7.47;;;13.50;99.90;;;;;;5010737;28;20281;-49
2021/08/17 02:32:04;;;;;;;18.23;8.10;;;13.60;99.90;;;;;;5011362;28;20267;-49
2021/08/17 02:34:31;;;;;;;20.60;8.27;;;13.60;99.90;;;;;;5010716;28;20308;-49
2021/08/17 02:36:58;;;;;;;15.77;8.07;;;13.60;99.90;;;;;;5010830;28;20250;-49
2021/08/17 02:39:24;;;;;;;16.77;6.83;;;13.70;99.90;;;;;;5009341;28;20212;-49
2021/08/17 02:41:51;;;;;;;20.37;8.50;;;13.80;99.90;;;;;;5010439;28;20359;-49
2021/08/17 02:44:18;;;;;;;21.00;9.43;;;13.60;99.90;;;;;;5010480;28;20293;-49
2021/08/17 02:46:45;;;;;;;20.70;9.77;;;13.70;99.90;;;;;;5011116;28;20197;-49
2021/08/17 02:49:12;;;;;;;19.57;8.67;;;13.70;99.90;;;;;;5009505;28;20283;-50
2021/08/17 02:51:38;;;;;;;17.20;9.40;;;13.80;99.90;;;;;;5010375;28;20206;-49
2021/08/17 02:54:05;;;;;;;22.57;9.80;;;13.70;99.90;;;;;;5010353;28;20294;-49
2021/08/17 02:56:32;;;;;;;22.23;9.57;;;13.80;99.90;;;;;;5010494;28;20300;-49
2021/08/17 02:58:59;;;;;;;26.97;11.00;;;13.80;99.90;;;;;;5010379;28;20292;-49
2021/08/17 03:01:25;;;;;;;24.13;11.33;;;13.70;99.90;;;;;;5010365;28;20241;-49
2021/08/17 03:03:52;;;;;;;25.33;11.47;;;13.70;99.90;;;;;;5009764;28;20325;-49
2021/08/17 03:06:19;;;;;;;23.00;11.53;;;13.60;99.90;;;;;;5010370;28;20994;-49
2021/08/17 03:08:46;;;;;;;27.30;10.63;;;13.60;99.90;;;;;;5010033;28;20229;-49
2021/08/17 03:11:13;;;;;;;27.70;11.53;;;13.70;99.90;;;;;;5009901;28;20209;-50
2021/08/17 03:13:40;;;;;;;25.20;11.37;;;13.60;99.90;;;;;;5009945;28;20204;-49
2021/08/17 03:16:07;;;;;;;26.30;11.30;;;13.70;99.90;;;;;;5009658;28;20217;-49
2021/08/17 03:18:34;;;;;;;23.43;11.63;;;13.60;99.90;;;;;;5009947;28;20194;-49
2021/08/17 03:21:00;;;;;;;30.90;11.13;;;13.60;99.90;;;;;;5009784;28;20349;-49
2021/08/17 03:23:27;;;;;;;33.30;13.10;;;13.70;99.90;;;;;;5010189;28;20674;-49
2021/08/17 03:25:57;;;;;;;32.37;13.33;;;13.70;99.90;;;;;;5009872;28;20254;-48
2021/08/17 03:28:24;;;;;;;26.47;12.20;;;13.60;99.90;;;;;;5009595;28;20202;-49
2021/08/17 03:30:51;;;;;;;30.30;13.53;;;13.60;99.90;;;;;;5009354;28;20765;-49
2021/08/17 03:33:18;;;;;;;33.13;13.93;;;13.60;99.90;;;;;;5009064;28;20551;-49
2021/08/17 03:35:45;;;;;;;37.27;13.70;;;13.60;99.90;;;;;;5008911;28;20726;-49
2021/08/17 03:38:11;;;;;;;30.57;13.23;;;13.70;99.90;;;;;;5009198;28;20217;-49
2021/08/17 03:40:38;;;;;;;29.70;13.57;;;13.70;99.90;;;;;;5008614;28;20209;-49
2021/08/17 03:43:05;;;;;;;34.90;13.83;;;13.80;99.90;;;;;;5008885;28;20296;-49
2021/08/17 03:45:32;;;;;;;35.43;14.50;;;13.80;99.90;;;;;;5009037;28;20233;-49
2021/08/17 03:47:59;;;;;;;35.87;14.17;;;13.60;99.90;;;;;;5008904;28;20427;-49
2021/08/17 03:50:26;;;;;;;30.20;13.70;;;13.60;99.90;;;;;;5008676;28;20289;-50
2021/08/17 03:52:52;;;;;;;34.47;15.67;;;13.60;99.90;;;;;;5008898;28;20213;-48
2021/08/17 03:55:20;;;;;;;29.27;13.60;;;13.50;99.90;;;;;;5008682;28;20297;-49
2021/08/17 03:57:48;;;;;;;31.47;13.80;;;13.50;99.90;;;;;;5008929;28;20263;-49
2021/08/17 04:00:25;;;;;;;34.97;15.43;;;13.50;99.90;;;;;;5008872;28;20646;-49
2021/08/17 04:02:53;;;;;;;34.33;14.03;;;13.50;99.90;;;;;;5008909;28;20361;-49
2021/08/17 04:05:21;;;;;;;34.33;14.77;;;13.50;99.90;;;;;;5008514;28;20252;-49
2021/08/17 04:07:48;;;;;;;34.37;13.47;;;13.50;99.90;;;;;;5008491;28;20212;-49
2021/08/17 04:10:15;;;;;;;34.20;14.60;;;13.60;99.90;;;;;;5007846;28;20210;-49
2021/08/17 04:12:42;;;;;;;32.43;14.47;;;13.60;99.90;;;;;;5007734;28;20564;-49
2021/08/17 04:15:10;;;;;;;36.70;15.17;;;13.60;99.90;;;;;;5004517;28;20244;-50
2021/08/17 04:17:37;;;;;;;38.37;14.97;;;13.50;99.90;;;;;;5006594;28;20296;-50
2021/08/17 04:20:06;;;;;;;34.47;14.10;;;13.60;99.90;;;;;;5006812;28;20284;-49
2021/08/17 04:22:33;;;;;;;34.57;14.73;;;13.60;99.90;;;;;;5006659;28;20393;-49
2021/08/17 04:25:00;;;;;;;32.27;14.10;;;13.60;99.90;;;;;;5005532;28;20296;-49
2021/08/17 04:27:26;;;;;;;37.37;14.93;;;13.60;99.90;;;;;;5006760;28;20202;-49
2021/08/17 04:29:53;;;;;;;37.70;15.43;;;13.50;99.90;;;;;;5006662;28;20204;-49
2021/08/17 04:32:20;;;;;;;34.90;14.37;;;13.50;99.90;;;;;;5007241;28;20296;-48
2021/08/17 04:34:47;;;;;;;29.43;13.73;;;13.60;99.90;;;;;;5006157;28;20295;-49
2021/08/17 04:37:13;;;;;;;34.70;13.73;;;13.60;99.90;;;;;;5007139;28;20300;-49
2021/08/17 04:39:40;;;;;;;34.63;15.43;;;13.50;99.90;;;;;;5006775;28;20230;-49
2021/08/17 04:42:07;;;;;;;28.27;11.83;;;13.60;99.90;;;;;;5007403;28;20600;-49
2021/08/17 04:44:35;;;;;;;30.80;14.20;;;13.60;99.90;;;;;;5006739;28;20201;-49
2021/08/17 04:47:02;;;;;;;30.20;13.43;;;13.60;99.90;;;;;;5006915;28;20247;-49
2021/08/17 04:49:29;;;;;;;39.40;15.20;;;13.60;99.90;;;;;;5005615;28;20691;-49
2021/08/17 04:51:56;;;;;;;34.93;13.03;;;13.60;99.90;;;;;;5007010;28;20583;-49
2021/08/17 04:54:22;;;;;;;31.47;13.53;;;13.60;99.90;;;;;;5006428;28;20306;-49
2021/08/17 04:56:49;;;;;;;32.03;12.87;;;13.60;99.90;;;;;;5007317;28;20244;-49
2021/08/17 04:59:16;;;;;;;28.23;13.03;;;13.70;99.90;;;;;;5006797;28;20286;-49
2021/08/17 05:01:43;;;;;;;33.10;13.57;;;13.70;99.90;;;;;;5006747;28;20662;-49
2021/08/17 05:04:10;;;;;;;29.77;13.47;;;13.60;99.90;;;;;;5006342;28;20259;-49
2021/08/17 05:06:37;;;;;;;34.17;14.13;;;13.70;99.90;;;;;;5006554;28;20661;-49
2021/08/17 05:09:04;;;;;;;29.00;13.33;;;13.70;99.90;;;;;;5006222;28;20201;-49
2021/08/17 05:11:31;;;;;;;36.60;13.93;;;13.60;99.90;;;;;;5005245;28;20632;-49
2021/08/17 05:13:58;;;;;;;31.97;13.23;;;13.60;99.90;;;;;;5006365;28;20275;-49
2021/08/17 05:16:25;;;;;;;32.43;13.23;;;13.60;99.90;;;;;;5006793;28;20251;-49
2021/08/17 05:18:52;;;;;;;33.83;13.50;;;13.60;99.90;;;;;;5006049;28;20201;-49
2021/08/17 05:21:21;;;;;;;34.93;14.00;;;13.60;99.90;;;;;;5006684;28;20225;-49
2021/08/17 05:23:48;;;;;;;39.03;15.23;;;13.60;99.90;;;;;;5006358;28;20289;-49
2021/08/17 05:26:15;;;;;;;28.83;12.87;;;13.70;99.90;;;;;;5006638;28;20709;-49
2021/08/17 05:28:41;;;;;;;28.27;12.73;;;13.80;99.90;;;;;;5006469;28;20202;-49
2021/08/17 05:31:08;;;;;;;34.10;14.00;;;13.90;99.90;;;;;;5005105;28;20226;-49
2021/08/17 05:33:35;;;;;;;32.60;13.23;;;13.90;99.90;;;;;;5005976;28;20212;-49
2021/08/17 05:36:02;;;;;;;30.63;13.10;;;13.80;99.90;;;;;;5006076;28;20601;-49
2021/08/17 05:38:48;;;;;;;30.57;12.03;;;13.90;99.90;;;;;;5006358;28;20319;-49
2021/08/17 05:41:14;;;;;;;29.27;11.87;;;14.00;99.90;;;;;;5005931;28;20233;-49
2021/08/17 05:43:42;;;;;;;27.47;12.10;;;14.00;99.90;;;;;;5005634;28;20665;-49
2021/08/17 05:46:08;;;;;;;29.83;12.53;;;14.00;99.90;;;;;;5006155;28;20215;-49
2021/08/17 05:48:40;;;;;;;23.50;11.40;;;14.00;99.90;;;;;;5006096;28;20237;-49
2021/08/17 05:51:07;;;;;;;27.93;11.67;;;14.00;99.90;;;;;;5005811;28;20235;-48
2021/08/17 05:53:34;;;;;;;36.33;12.80;;;14.20;99.90;;;;;;5006525;28;20543;-48
2021/08/17 05:56:01;;;;;;;33.50;12.37;;;14.10;99.90;;;;;;5006290;28;20245;-49
2021/08/17 05:58:28;;;;;;;33.17;12.27;;;14.20;99.90;;;;;;5010005;28;20247;-49
2021/08/17 06:00:55;;;;;;;26.80;12.30;;;14.30;99.90;;;;;;5005320;28;20308;-49
2021/08/17 06:03:22;;;;;;;27.17;12.33;;;14.20;99.90;;;;;;5010165;28;20209;-49
2021/08/17 06:05:49;;;;;;;34.80;12.77;;;14.20;99.90;;;;;;5009231;28;20364;-49
2021/08/17 06:08:16;;;;;;;27.73;11.87;;;14.20;99.90;;;;;;5009956;28;20312;-50
2021/08/17 06:10:43;;;;;;;27.20;11.80;;;14.20;99.90;;;;;;5009258;28;20246;-50
2021/08/17 06:13:09;;;;;;;30.23;12.10;;;14.20;99.90;;;;;;5009703;28;20216;-49
2021/08/17 06:15:36;;;;;;;30.27;12.83;;;14.20;99.90;;;;;;5009062;28;20237;-48
2021/08/17 06:18:05;;;;;;;30.30;12.10;;;14.30;99.90;;;;;;5008927;28;20223;-49
2021/08/17 06:20:32;;;;;;;32.90;12.23;;;14.30;99.90;;;;;;5008888;28;20216;-49
2021/08/17 06:22:59;;;;;;;28.27;11.80;;;14.30;99.90;;;;;;5009410;28;20209;-49
2021/08/17 06:25:27;;;;;;;23.03;10.63;;;14.40;99.90;;;;;;5009192;28;20259;-49
2021/08/17 06:27:54;;;;;;;24.63;11.03;;;14.50;99.90;;;;;;5009458;28;20209;-49
2021/08/17 06:30:22;;;;;;;24.03;10.97;;;14.60;99.90;;;;;;5008745;28;20297;-49
2021/08/17 06:32:55;;;;;;;27.43;10.90;;;14.60;99.90;;;;;;5009545;28;20721;-50
2021/08/17 06:35:22;;;;;;;28.47;11.73;;;14.80;99.90;;;;;;5008746;28;20271;-49
2021/08/17 06:37:50;;;;;;;22.03;9.73;;;14.80;99.90;;;;;;5009416;28;20287;-50
2021/08/17 06:40:17;;;;;;;27.43;11.03;;;14.80;99.90;;;;;;5008689;28;20201;-49
2021/08/17 06:42:44;;;;;;;26.73;10.77;;;14.80;99.90;;;;;;5009394;28;20283;-49
2021/08/17 06:45:12;;;;;;;25.77;9.57;;;14.90;99.90;;;;;;5009110;28;20233;-50
2021/08/17 06:47:51;;;;;;;24.37;9.97;;;14.90;99.90;;;;;;5008958;28;20228;-49
2021/08/17 06:50:37;;;;;;;21.67;9.10;;;14.90;99.90;;;;;;5008560;28;20213;-49
2021/08/17 06:53:04;;;;;;;24.50;9.67;;;15.10;99.90;;;;;;5009087;28;20205;-49
2021/08/17 06:55:31;;;;;;;34.33;11.23;;;15.10;99.90;;;;;;5009685;28;20289;-50
2021/08/17 06:57:58;;;;;;;22.73;10.47;;;15.10;99.90;;;;;;5009316;28;20218;-50
2021/08/17 07:00:25;;;;;;;28.53;9.40;;;15.20;99.90;;;;;;5008686;28;20240;-50
2021/08/17 07:02:51;;;;;;;22.00;9.47;;;15.20;99.90;;;;;;5009099;28;20680;-50
2021/08/17 07:05:35;;;;;;;25.47;10.13;;;15.10;99.90;;;;;;5008187;28;20234;-49
2021/08/17 07:08:04;;;;;;;25.37;11.77;;;15.20;99.90;;;;;;5008175;28;20205;-50
2021/08/17 07:10:31;;;;;;;30.40;10.13;;;15.20;99.90;;;;;;5009231;28;20206;-50
2021/08/17 07:13:18;;;;;;;24.67;11.13;;;15.40;99.90;;;;;;5008662;28;20296;-50
2021/08/17 07:15:45;;;;;;;20.90;9.90;;;15.30;99.90;;;;;;5007892;28;20269;-50
2021/08/17 07:18:12;;;;;;;27.50;10.70;;;15.40;99.90;;;;;;5008437;28;20207;-49
2021/08/17 07:20:40;;;;;;;25.90;9.70;;;15.40;99.90;;;;;;5006427;28;20693;-49
2021/08/17 07:23:07;;;;;;;20.70;10.00;;;15.40;99.90;;;;;;5008130;28;20272;-49
2021/08/17 07:25:35;;;;;;;22.03;10.10;;;15.50;99.90;;;;;;5008089;28;20237;-49
2021/08/17 07:28:03;;;;;;;19.43;10.13;;;15.50;99.90;;;;;;5008613;28;20298;-49
2021/08/17 07:30:30;;;;;;;23.17;10.10;;;15.50;99.90;;;;;;5008312;28;20659;-48
2021/08/17 07:32:57;;;;;;;21.50;9.10;;;15.40;99.90;;;;;;5008321;28;20300;-49
2021/08/17 07:35:23;;;;;;;22.47;10.43;;;15.40;99.90;;;;;;5007757;28;20292;-48
2021/08/17 07:37:50;;;;;;;23.33;9.93;;;15.50;99.90;;;;;;5008006;28;20241;-48
2021/08/17 07:40:18;;;;;;;21.20;10.97;;;15.50;99.90;;;;;;5007557;28;20215;-48
2021/08/17 07:42:45;;;;;;;24.53;11.10;;;15.50;99.90;;;;;;5007556;28;20310;-49
2021/08/17 07:45:13;;;;;;;20.07;9.87;;;15.50;99.90;;;;;;5006168;28;20323;-49
2021/08/17 07:47:41;;;;;;;22.60;10.10;;;15.60;99.90;;;;;;5007551;28;20244;-49
2021/08/17 07:50:09;;;;;;;24.80;11.70;;;15.80;99.90;;;;;;5007281;28;20803;-49
2021/08/17 07:52:37;;;;;;;24.57;10.90;;;15.90;99.90;;;;;;5007942;28;20722;-48
2021/08/17 07:55:09;;;;;;;24.23;9.20;;;15.80;99.90;;;;;;5007761;28;20719;-48
2021/08/17 07:57:36;;;;;;;21.23;9.73;;;15.80;99.90;;;;;;5007773;28;20289;-49
2021/08/17 08:00:06;;;;;;;25.13;10.50;;;15.80;99.90;;;;;;5007538;28;20256;-49
2021/08/17 08:02:33;;;;;;;20.37;10.97;;;15.80;99.90;;;;;;5007132;28;20263;-48
2021/08/17 08:05:00;;;;;;;22.20;9.37;;;15.80;99.90;;;;;;5007331;28;20293;-48
2021/08/17 08:07:26;;;;;;;19.73;9.57;;;15.90;99.90;;;;;;5007649;28;20262;-49
2021/08/17 08:09:53;;;;;;;20.03;9.03;;;16.00;99.90;;;;;;5007609;28;20242;-49
2021/08/17 08:12:20;;;;;;;22.87;9.83;;;16.10;99.90;;;;;;5014419;28;20269;-48
2021/08/17 08:14:49;;;;;;;15.43;8.20;;;16.10;99.90;;;;;;5007503;28;20216;-49
2021/08/17 08:17:15;;;;;;;18.80;8.70;;;16.20;99.90;;;;;;5007433;28;20683;-48
2021/08/17 08:19:42;;;;;;;20.13;9.77;;;16.10;99.90;;;;;;5007065;28;20297;-48
2021/08/17 08:22:09;;;;;;;16.97;8.10;;;16.10;99.90;;;;;;5007541;28;20216;-48
2021/08/17 08:24:37;;;;;;;16.20;8.90;;;16.00;99.90;;;;;;5007382;28;20254;-49
2021/08/17 08:27:05;;;;;;;16.17;8.13;;;16.00;99.90;;;;;;5007383;28;20741;-49
2021/08/17 08:29:32;;;;;;;15.27;7.73;;;15.90;99.90;;;;;;5006861;28;20241;-48
2021/08/17 08:31:59;;;;;;;14.23;7.30;;;15.90;99.90;;;;;;5007385;28;20263;-48
2021/08/17 08:34:26;;;;;;;16.93;8.37;;;15.80;99.90;;;;;;5007470;28;20294;-48
2021/08/17 08:36:53;;;;;;;24.43;7.33;;;15.90;99.90;;;;;;5007276;28;20248;-48
2021/08/17 08:39:22;;;;;;;15.10;7.83;;;16.00;99.90;;;;;;5006820;28;20214;-48
2021/08/17 08:41:54;;;;;;;16.97;7.83;;;16.00;99.90;;;;;;5007204;28;20211;-49
2021/08/17 08:44:21;;;;;;;20.57;7.27;;;16.00;99.90;;;;;;5006601;28;20265;-49
2021/08/17 08:46:49;;;;;;;14.50;7.87;;;16.10;99.90;;;;;;5007189;28;20786;-49
2021/08/17 08:49:19;;;;;;;18.97;6.83;;;16.20;99.90;;;;;;5006113;28;20322;-48
2021/08/17 08:51:46;;;;;;;13.93;7.40;;;16.20;99.90;;;;;;5005463;28;20242;-48
2021/08/17 08:54:12;;;;;;;12.43;6.47;;;16.10;99.90;;;;;;5006664;28;20241;-48
2021/08/17 08:56:39;;;;;;;15.20;6.13;;;16.20;99.90;;;;;;5006867;28;20246;-49
2021/08/17 08:59:06;;;;;;;15.03;6.60;;;16.20;99.90;;;;;;5006885;28;20723;-49
2021/08/17 09:01:33;;;;;;;14.47;6.73;;;16.20;99.90;;;;;;5007302;28;20664;-49
2021/08/17 09:04:00;;;;;;;11.10;6.03;;;16.20;99.90;;;;;;5005938;28;20289;-49
2021/08/17 09:06:29;;;;;;;13.53;6.43;;;16.30;99.90;;;;;;5007170;28;20289;-49
2021/08/17 09:09:07;;;;;;;15.00;6.50;;;16.20;99.90;;;;;;5006946;28;20324;-49
2021/08/17 09:11:35;;;;;;;14.63;5.63;;;16.30;99.90;;;;;;5006989;28;20205;-49
2021/08/17 09:14:28;;;;;;;14.03;7.17;;;16.30;99.90;;;;;;5006557;28;20398;-49
2021/08/17 09:16:57;;;;;;;17.37;7.33;;;16.30;99.90;;;;;;5006759;28;20662;-49
2021/08/17 09:19:35;;;;;;;12.33;6.37;;;16.30;99.90;;;;;;5006298;28;20311;-50
2021/08/17 09:22:20;;;;;;;11.93;5.90;;;16.40;99.90;;;;;;5006400;28;20305;-49
2021/08/17 09:24:48;;;;;;;12.40;6.70;;;16.40;99.90;;;;;;5006350;28;20253;-49
2021/08/17 09:27:18;;;;;;;9.57;5.47;;;16.40;99.90;;;;;;5006401;28;20247;-50
2021/08/17 09:29:49;;;;;;;13.80;7.10;;;16.40;99.90;;;;;;5006101;28;20255;-49
2021/08/17 09:32:25;;;;;;;10.03;5.90;;;16.40;99.90;;;;;;5008713;28;20660;-49
2021/08/17 09:34:54;;;;;;;8.33;5.50;;;16.40;99.90;;;;;;5009839;28;20236;-49
2021/08/17 09:37:27;;;;;;;13.07;5.97;;;16.30;99.90;;;;;;5010215;28;20217;-50
2021/08/17 09:39:55;;;;;;;13.87;5.63;;;16.40;99.90;;;;;;5009274;28;20245;-49
2021/08/17 09:42:31;;;;;;;9.13;5.47;;;16.30;99.90;;;;;;5009583;28;20268;-49
2021/08/17 09:45:09;;;;;;;9.17;5.23;;;16.50;99.90;;;;;;5009447;28;20453;-49
2021/08/17 09:47:38;;;;;;;10.17;4.53;;;16.40;99.90;;;;;;5009908;28;20238;-50
2021/08/17 09:50:29;;;;;;;9.20;4.57;;;16.40;99.90;;;;;;5009820;28;20254;-49
2021/08/17 09:53:17;;;;;;;11.40;4.27;;;16.40;99.90;;;;;;5009647;28;20219;-49
2021/08/17 09:55:50;;;;;;;9.70;4.47;;;16.40;99.90;;;;;;5009650;28;20297;-50
2021/08/17 09:58:34;;;;;;;8.80;4.33;;;16.40;99.90;;;;;;5009813;28;20637;-50
2021/08/17 10:01:03;;;;;;;7.40;3.87;;;16.20;99.90;;;;;;5009589;28;20681;-49
2021/08/17 10:03:32;;;;;;;7.17;2.53;;;16.20;99.90;;;;;;5009215;28;20197;-49
2021/08/17 10:06:00;;;;;;;9.93;3.37;;;16.20;99.90;;;;;;5009310;28;20716;-49
2021/08/17 10:08:29;;;;;;;5.87;3.80;;;16.20;99.90;;;;;;5009607;28;20222;-49
2021/08/17 10:10:57;;;;;;;7.10;4.13;;;16.30;99.90;;;;;;5009590;28;20494;-49
2021/08/17 10:13:27;;;;;;;8.13;4.00;;;16.20;99.90;;;;;;5009135;28;20285;-49
2021/08/17 10:15:54;;;;;;;6.03;3.77;;;16.20;99.90;;;;;;5007549;28;20285;-49
2021/08/17 10:18:29;;;;;;;5.97;3.80;;;16.10;99.90;;;;;;5009600;28;20214;-49
2021/08/17 10:21:00;;;;;;;8.73;4.37;;;16.10;99.90;;;;;;5008685;28;20394;-49
2021/08/17 10:23:27;;;;;;;12.80;4.93;;;16.10;99.90;;;;;;5008737;28;20211;-49
2021/08/17 10:25:59;;;;;;;11.07;5.13;;;16.10;99.90;;;;;;5008553;28;20218;-49
2021/08/17 10:28:26;;;;;;;8.73;4.60;;;16.00;99.90;;;;;;5008874;28;20633;-49
2021/08/17 10:30:54;;;;;;;6.60;4.50;;;16.00;99.90;;;;;;5008718;28;20203;-49
2021/08/17 10:34:11;;;;;;;8.10;4.53;;;16.00;99.90;;;;;;5009020;28;20202;-49
2021/08/17 10:36:43;;;;;;;7.30;4.73;;;15.90;99.90;;;;;;5016045;28;20268;-49
2021/08/17 10:39:16;;;;;;;13.40;4.83;;;16.00;99.90;;;;;;5016191;28;20776;-50
2021/08/17 10:41:44;;;;;;;8.43;4.97;;;16.00;99.90;;;;;;5016307;28;20240;-49
2021/08/17 10:44:15;;;;;;;10.03;4.83;;;16.00;99.90;;;;;;5013726;28;20348;-50
2021/08/17 10:46:47;;;;;;;7.17;4.87;;;16.00;99.90;;;;;;5016034;28;20236;-49
2021/08/17 10:49:35;;;;;;;10.23;5.40;;;16.10;99.90;;;;;;5015008;28;20233;-49
2021/08/17 10:52:05;;;;;;;7.53;4.40;;;16.00;99.90;;;;;;5015779;28;20896;-50
2021/08/17 10:54:36;;;;;;;8.70;5.27;;;16.10;99.90;;;;;;5015575;28;20268;-49
2021/08/17 10:57:16;;;;;;;11.47;4.60;;;16.10;99.90;;;;;;5015252;28;20654;-50
2021/08/17 10:59:45;;;;;;;11.87;4.80;;;16.10;99.90;;;;;;5015312;28;20215;-50
2021/08/17 11:02:14;;;;;;;10.93;4.73;;;16.10;99.90;;;;;;5015061;28;20207;-49
2021/08/17 11:04:44;;;;;;;9.53;4.80;;;16.10;99.90;;;;;;5014396;28;20312;-49
2021/08/17 11:07:34;;;;;;;7.10;4.70;;;16.20;99.90;;;;;;5015383;28;20796;-50
2021/08/17 11:10:03;;;;;;;7.90;4.63;;;16.10;99.90;;;;;;5000772;28;20238;-49
2021/08/17 11:12:38;;;;;;;8.57;4.87;;;16.10;99.90;;;;;;5008106;28;20513;-50
2021/08/17 11:15:08;;;;;;;7.77;3.80;;;16.10;99.90;;;;;;5008022;28;20408;-49
2021/08/17 11:17:35;;;;;;;9.10;4.67;;;16.10;99.90;;;;;;5007701;28;20260;-49
2021/08/17 11:20:04;;;;;;;7.60;4.07;;;16.10;99.90;;;;;;5007177;28;20558;-51
2021/08/17 11:22:36;;;;;;;7.97;4.23;;;16.00;99.90;;;;;;5006419;28;20256;-48
2021/08/17 11:25:07;;;;;;;12.87;4.33;;;16.00;99.90;;;;;;5008022;28;20309;-48
2021/08/17 11:27:40;;;;;;;7.03;4.50;;;16.00;99.90;;;;;;5008807;28;20234;-48
2021/08/17 11:30:10;;;;;;;8.97;4.70;;;16.00;99.90;;;;;;5008381;28;20203;-48
2021/08/17 11:32:40;;;;;;;10.50;4.00;;;15.90;99.90;;;;;;5007952;28;20263;-49
2021/08/17 11:35:11;;;;;;;6.40;3.90;;;15.80;99.90;;;;;;5007331;28;20302;-49
2021/08/17 11:37:42;;;;;;;7.40;4.27;;;15.80;99.90;;;;;;5007749;28;20716;-48
2021/08/17 11:40:13;;;;;;;9.73;4.30;;;15.80;99.90;;;;;;5007129;28;20246;-49
2021/08/17 11:42:43;;;;;;;6.67;3.90;;;15.80;99.90;;;;;;5007539;28;20619;-49
2021/08/17 11:45:16;;;;;;;6.50;3.80;;;15.70;99.90;;;;;;5007626;28;20764;-49
2021/08/17 11:47:45;;;;;;;11.13;5.80;;;15.70;99.90;;;;;;5007730;28;20290;-49
2021/08/17 11:50:15;;;;;;;10.93;4.77;;;15.50;99.90;;;;;;5007320;28;20289;-49
2021/08/17 11:52:56;;;;;;;7.17;4.63;;;15.50;99.90;;;;;;5007478;28;20700;-49
2021/08/17 11:55:29;;;;;;;9.37;5.03;;;15.40;99.90;;;;;;5007178;28;20712;-48
2021/08/17 11:58:04;;;;;;;12.03;4.90;;;15.30;99.90;;;;;;5007298;28;20613;-49
2021/08/17 12:00:33;;;;;;;7.83;4.77;;;15.20;99.90;;;;;;5007309;28;20215;-49
2021/08/17 12:03:05;;;;;;;8.70;4.83;;;15.30;99.90;;;;;;5007830;28;20550;-49
2021/08/17 12:05:34;;;;;;;6.50;4.33;;;15.30;99.90;;;;;;5006924;28;20685;-49
2021/08/17 12:08:09;;;;;;;5.83;4.83;;;15.30;99.90;;;;;;5007099;28;20216;-49
2021/08/17 12:10:39;;;;;;;8.60;4.63;;;15.30;99.90;;;;;;5007455;28;20222;-49
2021/08/17 12:13:07;;;;;;;7.80;4.37;;;15.30;99.90;;;;;;5007547;28;20242;-48
2021/08/17 12:15:38;;;;;;;8.03;5.43;;;15.30;99.90;;;;;;5007168;28;20222;-48
2021/08/17 12:18:19;;;;;;;9.53;5.50;;;15.10;99.90;;;;;;5006970;28;20248;-48
2021/08/17 12:20:49;;;;;;;10.73;6.27;;;15.00;99.90;;;;;;5006343;28;20205;-49
2021/08/17 12:23:20;;;;;;;14.57;5.97;;;15.10;99.90;;;;;;5022373;28;20661;-49
2021/08/17 12:25:49;;;;;;;10.53;6.83;;;15.20;99.90;;;;;;5007089;28;20223;-49
2021/08/17 12:28:28;;;;;;;11.10;6.73;;;15.10;99.90;;;;;;5007583;28;20301;-49
2021/08/17 12:31:28;;;;;;;10.20;6.13;;;15.10;99.90;;;;;;5006690;28;20205;-49
2021/08/17 12:34:00;;;;;;;9.40;6.17;;;15.00;99.90;;;;;;5006779;28;20252;-49
2021/08/17 12:36:40;;;;;;;10.83;6.27;;;15.10;99.90;;;;;;5006993;28;20289;-48
2021/08/17 12:39:11;;;;;;;9.17;6.97;;;15.30;99.90;;;;;;5014411;28;20510;-49
2021/08/17 12:41:46;;;;;;;10.97;6.43;;;15.10;99.90;;;;;;5006439;28;20305;-48
2021/08/17 12:44:18;;;;;;;12.00;7.53;;;15.20;99.90;;;;;;5004622;28;20241;-49
2021/08/17 12:47:11;;;;;;;10.03;8.00;;;15.30;99.90;;;;;;5006970;28;20258;-49